createdAt,value
2018-05-01T00:01:10.849Z,94.40
2018-05-01T00:03:45.241Z,93.80
2018-05-01T00:06:19.876Z,93.90
2018-05-01T00:08:55.237Z,93.50
2018-05-01T00:11:28.905Z,93.50
2018-05-01T00:14:02.943Z,93.60
2018-05-01T00:16:38.349Z,93.20
2018-05-01T00:19:11.972Z,93.20
2018-05-01T00:21:47.372Z,93.20
2018-05-01T00:24:21.112Z,93.10
2018-05-01T00:26:54.909Z,93.10
2018-05-01T00:29:28.528Z,93.60
2018-05-01T00:32:02.968Z,93.30
2018-05-01T00:34:36.584Z,93.30
2018-05-01T00:37:10.244Z,93.10
2018-05-01T00:39:43.912Z,93.10
2018-05-01T00:42:17.579Z,93.40
2018-05-01T00:44:51.225Z,93.70
2018-05-01T00:47:24.884Z,93.70
2018-05-01T00:49:58.538Z,93.70
2018-05-01T00:52:47.836Z,93.40
2018-05-01T00:55:21.460Z,93.50
2018-05-01T00:57:55.122Z,93.60
2018-05-01T01:00:37.004Z,93.70
2018-05-01T01:03:12.415Z,94.50
2018-05-01T01:05:46.084Z,94.50
2018-05-01T01:08:20.718Z,94.60
2018-05-01T01:10:54.343Z,94.80
2018-05-01T01:13:28.003Z,94.70
2018-05-01T01:16:01.766Z,94.60
2018-05-01T01:18:36.108Z,95.00
2018-05-01T01:21:11.547Z,94.40
2018-05-01T01:23:46.181Z,94.60
2018-05-01T01:26:19.837Z,94.70
2018-05-01T01:28:53.533Z,95.00
2018-05-01T01:31:27.197Z,95.40
2018-05-01T01:34:00.879Z,95.50
2018-05-01T01:36:33.379Z,95.90
2018-05-01T01:39:05.885Z,95.80
2018-05-01T01:41:39.351Z,95.70
2018-05-01T01:44:11.867Z,95.20
2018-05-01T01:46:44.368Z,94.90
2018-05-01T01:49:17.641Z,94.30
2018-05-01T01:51:51.040Z,94.30
2018-05-01T01:54:24.311Z,93.60
2018-05-01T01:56:56.805Z,93.60
2018-05-01T01:59:30.088Z,93.10
2018-05-01T02:02:03.564Z,93.20
2018-05-01T02:04:36.067Z,92.90
2018-05-01T02:07:09.335Z,92.40
2018-05-01T02:09:42.819Z,92.40
2018-05-01T02:12:16.299Z,92.30
2018-05-01T02:14:49.848Z,92.40
2018-05-01T02:17:22.340Z,91.90
2018-05-01T02:19:54.858Z,91.80
2018-05-01T02:22:27.357Z,91.50
2018-05-01T02:24:59.860Z,91.90
2018-05-01T02:27:32.359Z,92.20
2018-05-01T02:30:05.835Z,92.30
2018-05-01T02:32:39.330Z,92.40
2018-05-01T02:35:11.829Z,92.50
2018-05-01T02:37:44.320Z,92.20
2018-05-01T02:40:16.821Z,91.00
2018-05-01T02:42:49.318Z,91.10
2018-05-01T02:45:23.561Z,91.20
2018-05-01T02:47:56.061Z,91.20
2018-05-01T02:50:28.563Z,91.60
2018-05-01T02:53:02.057Z,92.10
2018-05-01T02:55:34.552Z,92.30
2018-05-01T02:58:07.810Z,92.30
2018-05-01T03:00:41.281Z,92.30
2018-05-01T03:03:15.495Z,92.30
2018-05-01T03:05:47.992Z,92.60
2018-05-01T03:08:20.497Z,92.80
2018-05-01T03:10:54.753Z,92.80
2018-05-01T03:13:27.257Z,92.80
2018-05-01T03:15:59.772Z,92.80
2018-05-01T03:18:32.275Z,92.80
2018-05-01T03:21:04.778Z,91.80
2018-05-01T03:23:37.303Z,91.90
2018-05-01T03:26:09.819Z,92.20
2018-05-01T03:28:42.332Z,91.60
2018-05-01T03:31:16.584Z,90.80
2018-05-01T03:33:50.054Z,90.80
2018-05-01T03:36:22.588Z,91.20
2018-05-01T03:38:56.117Z,90.70
2018-05-01T03:41:29.773Z,90.20
2018-05-01T03:44:02.300Z,89.90
2018-05-01T03:46:34.803Z,88.20
2018-05-01T03:49:07.292Z,87.40
2018-05-01T03:51:39.791Z,86.80
2018-05-01T03:54:12.291Z,85.70
2018-05-01T03:56:44.797Z,85.40
2018-05-01T03:59:17.306Z,84.90
2018-05-01T04:01:50.815Z,84.30
2018-05-01T04:04:24.072Z,84.90
2018-05-01T04:06:56.573Z,84.60
2018-05-01T04:09:29.100Z,83.60
2018-05-01T04:12:01.639Z,84.00
2018-05-01T04:14:34.923Z,84.00
2018-05-01T04:17:08.196Z,84.00
2018-05-01T04:19:40.717Z,84.00
2018-05-01T04:22:13.219Z,84.50
2018-05-01T04:24:46.669Z,85.00
2018-05-01T04:27:20.142Z,81.90
2018-05-01T04:29:53.658Z,82.30
2018-05-01T04:32:26.919Z,79.90
2018-05-01T04:34:59.620Z,79.90
2018-05-01T04:37:33.976Z,77.70
2018-05-01T04:40:07.464Z,77.70
2018-05-01T04:42:40.979Z,76.40
2018-05-01T04:45:13.479Z,75.60
2018-05-01T04:47:45.988Z,74.90
2018-05-01T04:50:20.220Z,73.70
2018-05-01T04:52:53.717Z,73.70
2018-05-01T04:55:27.186Z,73.10
2018-05-01T04:58:00.450Z,73.20
2018-05-01T05:00:32.953Z,72.50
2018-05-01T05:03:06.426Z,71.00
2018-05-01T05:05:38.934Z,72.40
2018-05-01T05:08:12.209Z,71.90
2018-05-01T05:10:44.734Z,71.80
2018-05-01T05:13:17.234Z,70.60
2018-05-01T05:15:49.515Z,70.30
2018-05-01T05:18:23.004Z,69.70
2018-05-01T05:20:56.520Z,70.20
2018-05-01T05:23:30.828Z,71.10
2018-05-01T05:26:03.166Z,70.60
2018-05-01T05:28:35.680Z,70.30
2018-05-01T05:31:08.188Z,69.40
2018-05-01T05:33:40.697Z,67.90
2018-05-01T05:36:13.258Z,68.00
2018-05-01T05:38:46.695Z,67.20
2018-05-01T05:41:19.210Z,67.10
2018-05-01T05:43:51.777Z,64.70
2018-05-01T05:46:24.282Z,62.70
2018-05-01T05:48:56.800Z,62.20
2018-05-01T05:51:30.083Z,61.80
2018-05-01T05:54:02.596Z,61.70
2018-05-01T05:56:35.107Z,60.80
2018-05-01T05:59:07.608Z,57.50
2018-05-01T06:01:40.875Z,56.00
2018-05-01T06:04:14.354Z,55.70
2018-05-01T06:06:47.667Z,56.30
2018-05-01T06:09:20.212Z,56.30
2018-05-01T06:11:53.701Z,54.30
2018-05-01T06:14:27.186Z,54.00
2018-05-01T06:17:00.699Z,51.60
2018-05-01T06:19:33.198Z,49.70
2018-05-01T06:22:05.807Z,48.50
2018-05-01T06:24:38.410Z,47.70
2018-05-01T06:27:10.922Z,48.40
2018-05-01T06:29:44.388Z,47.70
2018-05-01T06:32:16.896Z,46.70
2018-05-01T06:34:49.408Z,47.00
2018-05-01T06:37:21.985Z,47.40
2018-05-01T06:39:55.741Z,48.30
2018-05-01T06:42:29.197Z,46.80
2018-05-01T06:45:01.715Z,47.40
2018-05-01T06:47:34.229Z,49.20
2018-05-01T06:50:19.971Z,49.90
2018-05-01T06:52:56.242Z,49.80
2018-05-01T06:55:28.850Z,49.40
2018-05-01T06:58:13.261Z,50.00
2018-05-01T07:00:45.774Z,50.00
2018-05-01T07:03:25.699Z,49.80
2018-05-01T07:06:00.070Z,49.80
2018-05-01T07:08:34.780Z,51.10
2018-05-01T07:11:08.060Z,50.90
2018-05-01T07:13:41.326Z,51.40
2018-05-01T07:16:13.819Z,51.30
2018-05-01T07:18:46.311Z,52.00
2018-05-01T07:21:19.868Z,51.40
2018-05-01T07:23:53.313Z,52.50
2018-05-01T07:26:26.390Z,52.50
2018-05-01T07:28:59.580Z,52.60
2018-05-01T07:31:34.995Z,52.70
2018-05-01T07:34:18.565Z,51.50
2018-05-01T07:39:46.628Z,51.60
2018-05-01T07:42:25.841Z,52.80
2018-05-01T07:47:53.950Z,53.00
2018-05-01T07:53:16.533Z,52.90
2018-05-01T07:55:52.072Z,53.30
2018-05-01T07:58:32.726Z,52.10
2018-05-01T08:01:09.131Z,51.90
2018-05-01T08:03:47.957Z,51.80
2018-05-01T08:06:20.284Z,51.80
2018-05-01T08:08:53.560Z,53.10
2018-05-01T08:11:26.064Z,53.10
2018-05-01T08:13:58.701Z,54.70
2018-05-01T08:16:31.219Z,55.00
2018-05-01T08:19:03.719Z,54.90
2018-05-01T08:21:40.348Z,53.20
2018-05-01T08:24:29.511Z,54.50
2018-05-01T08:29:56.834Z,54.40
2018-05-01T08:32:32.220Z,54.90
2018-05-01T08:35:09.965Z,51.90
2018-05-01T08:37:57.248Z,53.10
2018-05-01T08:40:38.792Z,53.40
2018-05-01T08:45:56.185Z,50.90
2018-05-01T08:48:29.657Z,51.40
2018-05-01T08:51:02.921Z,53.20
2018-05-01T08:53:35.432Z,53.20
2018-05-01T08:56:09.670Z,54.70
2018-05-01T08:58:42.260Z,54.70
2018-05-01T09:01:14.770Z,55.50
2018-05-01T09:03:47.271Z,55.50
2018-05-01T09:06:19.774Z,56.10
2018-05-01T09:08:52.284Z,57.00
2018-05-01T09:11:24.793Z,54.80
2018-05-01T09:13:58.257Z,55.40
2018-05-01T09:16:31.928Z,54.20
2018-05-01T09:19:05.389Z,53.80
2018-05-01T09:21:40.116Z,54.30
2018-05-01T09:24:13.630Z,54.50
2018-05-01T09:26:48.777Z,54.80
2018-05-01T09:29:23.242Z,55.20
2018-05-01T09:32:03.184Z,55.70
2018-05-01T09:34:41.715Z,56.10
2018-05-01T09:37:16.222Z,56.00
2018-05-01T09:39:48.752Z,56.60
2018-05-01T09:42:24.606Z,56.20
2018-05-01T09:45:04.751Z,56.40
2018-05-01T09:47:40.061Z,56.40
2018-05-01T09:50:16.623Z,56.40
2018-05-01T09:52:56.655Z,56.90
2018-05-01T09:55:30.405Z,57.70
2018-05-01T09:58:04.076Z,57.80
2018-05-01T10:03:32.664Z,57.60
2018-05-01T10:06:09.507Z,57.60
2018-05-01T10:08:50.934Z,57.50
2018-05-01T10:11:25.668Z,56.60
2018-05-01T10:14:02.835Z,56.40
2018-05-01T10:16:42.087Z,57.30
2018-05-01T10:25:15.534Z,57.30
2018-05-01T10:27:48.998Z,57.50
2018-05-01T10:33:26.512Z,57.20
2018-05-01T10:36:08.319Z,57.50
2018-05-01T10:38:43.959Z,57.40
2018-05-01T10:41:21.288Z,57.60
2018-05-01T10:44:02.762Z,58.00
2018-05-01T10:46:44.408Z,58.40
2018-05-01T10:49:28.366Z,57.60
2018-05-01T10:54:52.109Z,57.50
2018-05-01T10:57:41.377Z,58.40
2018-05-01T11:00:24.649Z,59.40
2018-05-01T11:06:08.904Z,60.70
2018-05-01T11:11:41.450Z,60.30
2018-05-01T11:14:28.018Z,62.10
2018-05-01T11:17:02.916Z,62.10
2018-05-01T11:19:42.804Z,63.80
2018-05-01T11:22:18.942Z,64.50
2018-05-01T11:24:54.284Z,63.80
2018-05-01T11:30:18.536Z,62.50
2018-05-01T11:32:56.772Z,63.80
2018-05-01T11:35:31.650Z,64.20
2018-05-01T11:38:21.581Z,63.10
2018-05-01T11:40:56.356Z,63.10
2018-05-01T11:43:34.708Z,63.60
2018-05-01T11:46:12.824Z,63.60
2018-05-01T11:48:58.795Z,63.50
2018-05-01T11:54:34.184Z,61.60
2018-05-01T11:57:24.303Z,62.10
2018-05-01T12:02:42.739Z,61.70
2018-05-01T12:05:17.508Z,62.40
2018-05-01T12:07:51.208Z,61.80
2018-05-01T12:10:26.603Z,61.80
2018-05-01T12:13:00.283Z,61.80
2018-05-01T12:15:33.684Z,61.60
2018-05-01T12:18:08.352Z,61.40
2018-05-01T12:20:42.006Z,62.20
2018-05-01T12:23:17.849Z,63.50
2018-05-01T12:25:52.480Z,63.90
2018-05-01T12:28:27.149Z,64.00
2018-05-01T12:31:01.003Z,64.00
2018-05-01T12:36:39.493Z,63.60
2018-05-01T12:39:15.804Z,64.00
2018-05-01T12:41:49.487Z,64.30
2018-05-01T12:44:23.624Z,63.90
2018-05-01T12:47:00.650Z,63.60
2018-05-01T12:49:45.934Z,64.10
2018-05-01T12:52:20.878Z,64.20
2018-05-01T12:54:54.621Z,64.40
2018-05-01T12:57:29.040Z,64.80
2018-05-01T13:00:03.795Z,66.50
2018-05-01T13:02:37.449Z,65.80
2018-05-01T13:05:11.202Z,65.50
2018-05-01T13:07:45.025Z,65.90
2018-05-01T13:10:18.726Z,66.50
2018-05-01T13:12:52.375Z,66.10
2018-05-01T13:15:26.799Z,66.70
2018-05-01T13:18:01.215Z,66.50
2018-05-01T13:20:36.682Z,66.20
2018-05-01T13:23:10.347Z,66.10
2018-05-01T13:25:44.055Z,65.50
2018-05-01T13:28:18.741Z,66.30
2018-05-01T13:30:52.478Z,66.50
2018-05-01T13:33:26.182Z,66.10
2018-05-01T13:35:59.831Z,66.90
2018-05-01T13:38:33.505Z,66.90
2018-05-01T13:41:07.169Z,66.90
2018-05-01T13:43:41.039Z,66.80
2018-05-01T13:46:14.691Z,67.60
2018-05-01T13:48:48.124Z,67.80
2018-05-01T13:51:33.011Z,68.10
2018-05-01T13:54:06.766Z,67.90
2018-05-01T13:56:41.197Z,67.40
2018-05-01T13:59:14.851Z,67.40
2018-05-01T14:01:48.503Z,67.90
2018-05-01T14:04:22.182Z,67.70
2018-05-01T14:06:56.027Z,68.80
2018-05-01T14:09:31.388Z,70.20
2018-05-01T14:12:05.043Z,70.20
2018-05-01T14:14:38.701Z,70.10
2018-05-01T14:17:12.354Z,70.60
2018-05-01T14:19:46.109Z,70.50
2018-05-01T14:22:20.748Z,70.60
2018-05-01T14:24:55.384Z,69.80
2018-05-01T14:27:30.723Z,70.50
2018-05-01T14:30:04.825Z,71.20
2018-05-01T14:32:42.329Z,70.40
2018-05-01T14:35:17.708Z,70.30
2018-05-01T14:37:52.358Z,70.50
2018-05-01T14:40:26.976Z,70.90
2018-05-01T14:43:00.632Z,69.90
2018-05-01T14:45:34.294Z,69.70
2018-05-01T14:48:07.954Z,69.70
2018-05-01T14:50:42.592Z,67.30
2018-05-01T14:53:18.967Z,67.10
2018-05-01T14:55:53.743Z,67.20
2018-05-01T14:58:29.112Z,69.00
2018-05-01T15:01:03.768Z,68.30
2018-05-01T15:03:38.425Z,68.80
2018-05-01T15:06:12.861Z,68.50
2018-05-01T15:08:47.439Z,69.50
2018-05-01T15:11:20.896Z,68.60
2018-05-01T15:13:55.528Z,67.80
2018-05-01T15:16:31.583Z,68.40
2018-05-01T15:19:05.298Z,67.70
2018-05-01T15:21:39.570Z,69.30
2018-05-01T15:24:15.503Z,67.70
2018-05-01T15:26:50.173Z,67.70
2018-05-01T15:29:24.873Z,67.60
2018-05-01T15:31:59.547Z,67.40
2018-05-01T15:34:34.429Z,68.40
2018-05-01T15:37:11.025Z,68.50
2018-05-01T15:39:54.241Z,68.10
2018-05-01T15:42:28.405Z,67.80
2018-05-01T15:45:02.074Z,68.10
2018-05-01T15:47:35.700Z,68.60
2018-05-01T15:50:09.357Z,68.70
2018-05-01T15:52:42.985Z,68.70
2018-05-01T15:55:17.905Z,69.10
2018-05-01T16:00:33.388Z,70.50
2018-05-01T16:03:26.722Z,70.60
2018-05-01T16:06:01.198Z,71.20
2018-05-01T16:08:43.601Z,71.90
2018-05-01T16:11:19.414Z,71.80
2018-05-01T16:13:56.064Z,71.90
2018-05-01T16:16:37.866Z,71.90
2018-05-01T16:19:20.455Z,71.60
2018-05-01T16:28:08.141Z,72.40
2018-05-01T16:30:43.983Z,71.90
2018-05-01T16:33:18.382Z,71.40
2018-05-01T16:35:52.106Z,71.20
2018-05-01T16:38:26.831Z,71.70
2018-05-01T16:41:01.275Z,71.50
2018-05-01T16:43:35.876Z,71.50
2018-05-01T16:46:09.544Z,72.00
2018-05-01T16:48:43.216Z,72.50
2018-05-01T16:51:16.880Z,73.10
2018-05-01T16:53:50.505Z,72.90
2018-05-01T16:56:25.169Z,73.20
2018-05-01T16:58:58.794Z,72.80
2018-05-01T17:01:33.217Z,73.50
2018-05-01T17:04:07.386Z,73.40
2018-05-01T17:06:41.049Z,73.40
2018-05-01T17:09:14.712Z,74.30
2018-05-01T17:11:49.296Z,75.50
2018-05-01T17:14:22.958Z,74.50
2018-05-01T17:16:56.577Z,74.40
2018-05-01T17:19:30.231Z,75.00
2018-05-01T17:22:03.890Z,76.00
2018-05-01T17:24:39.804Z,76.00
2018-05-01T17:27:14.213Z,75.80
2018-05-01T17:29:47.891Z,75.80
2018-05-01T17:32:21.536Z,76.80
2018-05-01T17:34:55.278Z,77.50
2018-05-01T17:37:29.025Z,76.90
2018-05-01T17:40:03.475Z,78.00
2018-05-01T17:42:37.101Z,77.90
2018-05-01T17:45:10.766Z,77.50
2018-05-01T17:47:44.387Z,77.90
2018-05-01T17:50:19.019Z,78.20
2018-05-01T17:52:53.650Z,76.60
2018-05-01T17:55:27.293Z,77.20
2018-05-01T17:58:01.714Z,76.60
2018-05-01T18:00:36.819Z,76.00
2018-05-01T18:03:10.477Z,76.00
2018-05-01T18:05:44.140Z,75.60
2018-05-01T18:08:17.797Z,75.70
2018-05-01T18:10:51.420Z,76.10
2018-05-01T18:13:25.076Z,76.50
2018-05-01T18:16:02.031Z,76.20
2018-05-01T18:18:36.682Z,76.10
2018-05-01T18:21:11.746Z,76.20
2018-05-01T18:23:45.403Z,76.60
2018-05-01T18:26:19.603Z,75.70
2018-05-01T18:28:55.045Z,76.70
2018-05-01T18:31:29.464Z,76.70
2018-05-01T18:34:06.194Z,76.70
2018-05-01T18:36:40.624Z,77.70
2018-05-01T18:39:15.246Z,77.70
2018-05-01T18:41:56.172Z,78.00
2018-05-01T18:44:29.833Z,78.30
2018-05-01T18:47:03.467Z,78.70
2018-05-01T18:49:38.165Z,78.70
2018-05-01T18:52:12.788Z,79.20
2018-05-01T18:54:46.460Z,79.50
2018-05-01T18:57:20.827Z,79.60
2018-05-01T18:59:56.440Z,79.60
2018-05-01T19:02:30.814Z,79.60
2018-05-01T19:05:04.471Z,80.30
2018-05-01T19:07:38.095Z,80.40
2018-05-01T19:10:11.765Z,80.40
2018-05-01T19:12:45.229Z,80.30
2018-05-01T19:15:19.843Z,80.50
2018-05-01T19:17:53.469Z,80.30
2018-05-01T19:20:26.909Z,80.80
2018-05-01T19:23:00.544Z,80.80
2018-05-01T19:25:34.287Z,80.80
2018-05-01T19:28:07.922Z,80.90
2018-05-01T19:30:41.621Z,81.00
2018-05-01T19:33:15.264Z,81.40
2018-05-01T19:35:48.932Z,81.80
2018-05-01T19:38:23.561Z,80.90
2018-05-01T19:40:57.234Z,81.40
2018-05-01T19:43:31.676Z,81.10
2018-05-01T19:46:05.335Z,81.10
2018-05-01T19:48:38.967Z,80.10
2018-05-01T19:51:12.728Z,81.20
2018-05-01T19:53:46.470Z,80.80
2018-05-01T19:56:21.121Z,81.30
2018-05-01T19:58:55.749Z,81.60
2018-05-01T20:01:29.420Z,82.20
2018-05-01T20:04:04.025Z,82.60
2018-05-01T20:06:38.458Z,83.10
2018-05-01T20:09:12.111Z,83.10
2018-05-01T20:11:45.788Z,83.40
2018-05-01T20:14:20.306Z,83.90
2018-05-01T20:16:59.471Z,84.20
2018-05-01T20:19:36.853Z,84.50
2018-05-01T20:22:14.046Z,84.70
2018-05-01T20:24:51.850Z,84.90
2018-05-01T20:27:29.904Z,85.40
2018-05-01T20:30:08.500Z,85.30
2018-05-01T20:35:34.769Z,87.20
2018-05-01T20:38:15.130Z,87.30
2018-05-01T20:40:49.308Z,88.40
2018-05-01T20:43:23.738Z,88.70
2018-05-01T20:45:59.723Z,88.70
2018-05-01T20:48:34.679Z,88.60
2018-05-01T20:51:15.076Z,89.00
2018-05-01T20:54:09.314Z,88.60
2018-05-01T20:56:46.847Z,88.60
2018-05-01T20:59:30.992Z,89.30
2018-05-01T21:02:09.870Z,89.60
2018-05-01T21:04:51.846Z,88.50
2018-05-01T21:07:32.024Z,87.90
2018-05-01T21:10:13.654Z,88.00
2018-05-01T21:18:36.563Z,87.50
2018-05-01T21:26:58.023Z,86.50
2018-05-01T21:29:38.398Z,86.70
2018-05-01T21:38:17.338Z,86.10
2018-05-01T21:41:09.052Z,86.40
2018-05-01T21:43:57.099Z,86.40
2018-05-01T21:46:38.230Z,86.00
2018-05-01T21:49:17.741Z,86.60
2018-05-01T21:57:40.939Z,87.80
2018-05-01T22:00:23.974Z,87.80
2018-05-01T22:02:59.448Z,87.90
2018-05-01T22:05:40.347Z,88.40
2018-05-01T22:11:00.301Z,87.30
2018-05-01T22:13:44.066Z,87.50
2018-05-01T22:19:31.966Z,86.20
2018-05-01T22:22:11.503Z,86.70
2018-05-01T22:24:52.972Z,86.20
2018-05-01T22:31:07.312Z,84.40
2018-05-01T22:33:47.208Z,83.60
2018-05-01T22:36:23.345Z,83.40
2018-05-01T22:38:57.163Z,82.00
2018-05-01T22:41:30.822Z,82.40
2018-05-01T22:44:04.464Z,82.80
2018-05-01T22:46:39.108Z,82.30
2018-05-01T22:49:12.753Z,82.10
2018-05-01T22:51:46.406Z,81.90
2018-05-01T22:54:21.081Z,81.70
2018-05-01T22:56:55.671Z,82.30
2018-05-01T22:59:29.343Z,82.60
2018-05-01T23:02:02.967Z,81.80
2018-05-01T23:04:42.644Z,82.00
2018-05-01T23:07:17.112Z,81.80
2018-05-01T23:09:50.781Z,81.80
2018-05-01T23:12:24.413Z,81.50
2018-05-01T23:14:58.093Z,81.20
2018-05-01T23:17:32.618Z,81.90
2018-05-01T23:20:06.537Z,82.30
2018-05-01T23:22:40.167Z,82.80
2018-05-01T23:25:14.594Z,83.40
2018-05-01T23:27:48.223Z,84.00
2018-05-01T23:30:21.892Z,83.70
2018-05-01T23:32:55.512Z,82.90
2018-05-01T23:35:29.168Z,82.80
2018-05-01T23:38:02.790Z,83.00
2018-05-01T23:40:37.301Z,82.20
2018-05-01T23:43:11.043Z,82.10
2018-05-01T23:45:44.702Z,82.60
2018-05-01T23:48:18.316Z,81.90
2018-05-01T23:50:53.736Z,81.70
2018-05-01T23:53:27.405Z,81.50
2018-05-01T23:56:01.065Z,82.00
2018-05-01T23:58:35.448Z,83.40
